createdAt,value
2022-12-13T00:01:53.481Z,27.60
2022-12-13T00:04:23.734Z,27.60
2022-12-13T00:06:52.660Z,27.60
2022-12-13T00:09:21.161Z,27.50
2022-12-13T00:11:51.169Z,27.60
2022-12-13T00:14:20.394Z,27.60
2022-12-13T00:16:50.412Z,27.50
2022-12-13T00:19:19.438Z,27.50
2022-12-13T00:21:48.853Z,27.50
2022-12-13T00:24:17.268Z,27.50
2022-12-13T00:26:45.974Z,27.40
2022-12-13T00:29:14.636Z,27.40
2022-12-13T00:31:58.732Z,27.40
2022-12-13T00:34:29.415Z,27.40
2022-12-13T00:36:57.763Z,27.40
2022-12-13T00:39:27.127Z,27.40
2022-12-13T00:41:55.410Z,27.40
2022-12-13T00:44:23.860Z,27.30
2022-12-13T00:46:52.100Z,27.40
2022-12-13T00:49:20.928Z,27.40
2022-12-13T00:51:49.937Z,27.40
2022-12-13T00:54:18.585Z,27.40
2022-12-13T00:56:46.710Z,27.50
2022-12-13T00:59:16.138Z,27.40
2022-12-13T01:01:45.357Z,27.40
2022-12-13T01:04:14.066Z,27.40
2022-12-13T01:06:47.213Z,27.40
2022-12-13T01:09:22.003Z,27.40
2022-12-13T01:11:51.308Z,27.40
2022-12-13T01:14:19.999Z,27.40
2022-12-13T01:16:48.495Z,27.40
2022-12-13T01:19:16.857Z,27.40
2022-12-13T01:21:45.292Z,27.40
2022-12-13T01:24:13.642Z,27.40
2022-12-13T01:26:42.044Z,27.40
2022-12-13T01:29:10.451Z,27.30
2022-12-13T01:31:38.731Z,27.30
2022-12-13T01:34:06.944Z,27.20
2022-12-13T01:36:38.200Z,27.20
2022-12-13T01:39:14.731Z,27.10
2022-12-13T01:41:45.999Z,27.00
2022-12-13T01:44:51.239Z,26.90
2022-12-13T01:47:24.752Z,26.80
2022-12-13T01:49:56.600Z,26.70
2022-12-13T01:52:31.879Z,26.70
2022-12-13T01:55:03.706Z,26.60
2022-12-13T01:57:46.956Z,26.70
2022-12-13T02:00:16.046Z,26.60
2022-12-13T02:02:45.271Z,26.60
2022-12-13T02:05:23.271Z,26.50
2022-12-13T02:07:52.816Z,26.50
2022-12-13T02:10:21.553Z,26.50
2022-12-13T02:12:49.933Z,26.40
2022-12-13T02:15:20.063Z,26.40
2022-12-13T02:18:07.043Z,26.40
2022-12-13T02:20:44.535Z,26.30
2022-12-13T02:23:45.633Z,26.30
2022-12-13T02:26:32.471Z,26.30
2022-12-13T02:29:30.949Z,26.30
2022-12-13T02:32:20.776Z,26.30
2022-12-13T02:35:31.857Z,26.30
2022-12-13T02:38:17.688Z,26.30
2022-12-13T02:40:55.699Z,26.30
2022-12-13T02:43:48.003Z,26.30
2022-12-13T02:46:20.749Z,26.20
2022-12-13T02:48:53.399Z,26.10
2022-12-13T02:51:23.716Z,26.10
2022-12-13T02:53:51.975Z,26.10
2022-12-13T02:56:20.110Z,26.10
2022-12-13T02:58:54.112Z,26.00
2022-12-13T03:01:40.026Z,26.00
2022-12-13T03:04:26.614Z,26.00
2022-12-13T03:07:27.399Z,26.00
2022-12-13T03:10:25.074Z,25.90
2022-12-13T03:13:03.266Z,26.00
2022-12-13T03:16:01.092Z,25.90
2022-12-13T03:18:30.977Z,26.00
2022-12-13T03:21:08.514Z,26.10
2022-12-13T03:23:37.966Z,26.10
2022-12-13T03:26:14.000Z,26.10
2022-12-13T03:28:42.435Z,26.00
2022-12-13T03:31:10.889Z,26.00
2022-12-13T03:33:39.384Z,26.00
2022-12-13T03:36:08.976Z,26.00
2022-12-13T03:38:37.805Z,26.00
2022-12-13T03:41:13.357Z,25.90
2022-12-13T03:43:43.078Z,25.90
2022-12-13T03:46:11.743Z,25.90
2022-12-13T03:48:40.087Z,25.90
2022-12-13T03:51:08.653Z,25.90
2022-12-13T03:53:36.942Z,25.90
2022-12-13T03:56:07.330Z,25.90
2022-12-13T03:58:38.082Z,25.80
2022-12-13T04:01:08.582Z,25.90
2022-12-13T04:03:38.048Z,25.80
2022-12-13T04:06:06.912Z,25.80
2022-12-13T04:08:36.997Z,25.80
2022-12-13T04:11:06.018Z,25.70
2022-12-13T04:13:34.319Z,25.70
2022-12-13T04:16:03.603Z,25.70
2022-12-13T04:18:31.954Z,25.70
2022-12-13T04:21:00.203Z,25.70
2022-12-13T04:23:28.483Z,25.70
2022-12-13T04:25:57.513Z,25.70
2022-12-13T04:28:25.878Z,25.60
2022-12-13T04:30:54.768Z,25.60
2022-12-13T04:33:23.574Z,25.60
2022-12-13T04:35:52.289Z,25.70
2022-12-13T04:38:21.296Z,25.70
2022-12-13T04:40:50.550Z,25.70
2022-12-13T04:43:18.676Z,25.70
2022-12-13T04:45:47.143Z,25.70
2022-12-13T04:48:30.950Z,25.70
2022-12-13T04:51:01.562Z,25.70
2022-12-13T04:53:31.141Z,25.60
2022-12-13T04:55:59.699Z,25.60
2022-12-13T04:58:28.695Z,25.60
2022-12-13T05:00:57.234Z,25.60
2022-12-13T05:03:26.285Z,25.60
2022-12-13T05:05:54.799Z,25.50
2022-12-13T05:08:22.945Z,25.50
2022-12-13T05:10:51.378Z,25.50
2022-12-13T05:13:19.564Z,25.50
2022-12-13T05:15:53.588Z,25.50
2022-12-13T05:18:23.527Z,25.50
2022-12-13T05:20:51.880Z,25.50
2022-12-13T05:23:22.909Z,25.60
2022-12-13T05:25:54.031Z,25.50
2022-12-13T05:28:27.831Z,25.60
2022-12-13T05:30:59.034Z,25.60
2022-12-13T05:33:27.348Z,25.60
2022-12-13T05:36:00.497Z,25.60
2022-12-13T05:38:30.708Z,25.60
2022-12-13T05:40:59.861Z,25.50
2022-12-13T05:43:43.237Z,25.50
2022-12-13T05:46:15.419Z,25.50
2022-12-13T05:48:43.734Z,25.40
2022-12-13T05:51:12.921Z,25.40
2022-12-13T05:53:42.560Z,25.30
2022-12-13T05:56:11.973Z,25.30
2022-12-13T05:58:41.090Z,25.30
2022-12-13T06:01:12.510Z,25.30
2022-12-13T06:03:41.877Z,25.30
2022-12-13T06:06:12.808Z,25.30
2022-12-13T06:08:41.436Z,25.40
2022-12-13T06:11:11.193Z,25.30
2022-12-13T06:13:44.679Z,25.30
2022-12-13T06:16:21.802Z,25.30
2022-12-13T06:19:01.308Z,25.30
2022-12-13T06:21:41.300Z,25.30
2022-12-13T06:24:12.377Z,25.30
2022-12-13T06:26:40.682Z,25.30
2022-12-13T06:29:08.959Z,25.30
2022-12-13T06:31:37.648Z,25.30
2022-12-13T06:34:14.742Z,25.30
2022-12-13T06:36:43.961Z,25.30
2022-12-13T06:39:12.406Z,25.30
2022-12-13T06:41:40.658Z,25.30
2022-12-13T06:44:09.391Z,25.30
2022-12-13T06:46:40.934Z,25.30
2022-12-13T06:49:09.592Z,25.30
2022-12-13T06:51:37.876Z,25.30
2022-12-13T06:54:06.040Z,25.20
2022-12-13T06:56:34.380Z,25.20
2022-12-13T06:59:02.740Z,25.20
2022-12-13T07:01:37.359Z,25.20
2022-12-13T07:04:29.994Z,25.20
2022-12-13T07:06:55.325Z,25.20
2022-12-13T07:09:31.990Z,25.30
2022-12-13T07:12:01.013Z,25.30
2022-12-13T07:14:29.462Z,25.30
2022-12-13T07:17:03.377Z,25.30
2022-12-13T07:19:35.013Z,25.40
2022-12-13T07:22:10.737Z,25.40
2022-12-13T07:24:38.941Z,25.40
2022-12-13T07:27:07.212Z,25.40
2022-12-13T07:29:35.510Z,25.40
2022-12-13T07:32:03.778Z,25.40
2022-12-13T07:34:32.053Z,25.40
2022-12-13T07:37:00.608Z,25.50
2022-12-13T07:39:28.767Z,25.60
2022-12-13T07:41:57.168Z,25.60
2022-12-13T07:44:25.794Z,25.60
2022-12-13T07:46:55.764Z,25.70
2022-12-13T07:49:24.254Z,25.70
2022-12-13T07:51:52.468Z,25.80
2022-12-13T07:54:21.372Z,25.90
2022-12-13T07:56:50.939Z,25.90
2022-12-13T07:59:28.864Z,25.90
2022-12-13T08:01:57.711Z,25.90
2022-12-13T08:04:38.449Z,25.90
2022-12-13T08:07:10.665Z,26.00
2022-12-13T08:09:39.139Z,26.10
2022-12-13T08:12:07.672Z,26.10
2022-12-13T08:14:35.946Z,26.10
2022-12-13T08:17:04.407Z,26.20
2022-12-13T08:19:32.613Z,26.30
2022-12-13T08:22:02.100Z,26.30
2022-12-13T08:24:31.929Z,26.40
2022-12-13T08:27:02.716Z,26.50
2022-12-13T08:29:34.301Z,26.50
2022-12-13T08:32:06.240Z,26.60
2022-12-13T08:34:34.618Z,26.70
2022-12-13T08:37:03.963Z,26.70
2022-12-13T08:39:35.605Z,26.80
2022-12-13T08:42:15.144Z,26.90
2022-12-13T08:44:53.691Z,26.90
2022-12-13T08:47:26.400Z,26.90
2022-12-13T08:50:03.172Z,26.90
2022-12-13T08:52:39.801Z,26.90
2022-12-13T08:55:10.961Z,27.00
2022-12-13T08:57:40.577Z,27.10
2022-12-13T09:00:11.801Z,27.10
2022-12-13T09:02:40.101Z,27.20
2022-12-13T09:05:10.311Z,27.30
2022-12-13T09:07:38.736Z,27.30
2022-12-13T09:10:26.592Z,27.40
2022-12-13T09:13:01.308Z,27.40
2022-12-13T09:15:33.983Z,27.50
2022-12-13T09:18:04.881Z,27.60
2022-12-13T09:20:40.531Z,27.60
2022-12-13T09:23:23.112Z,27.70
2022-12-13T09:26:05.393Z,27.80
2022-12-13T09:28:37.100Z,27.80
2022-12-13T09:31:14.571Z,27.90
2022-12-13T09:33:43.841Z,28.00
2022-12-13T09:36:17.661Z,28.00
2022-12-13T09:38:46.416Z,28.10
2022-12-13T09:41:34.746Z,28.10
2022-12-13T09:44:32.333Z,28.20
2022-12-13T09:47:04.069Z,28.20
2022-12-13T09:49:52.616Z,28.20
2022-12-13T09:52:25.177Z,28.20
2022-12-13T09:54:56.205Z,28.30
2022-12-13T09:57:34.192Z,28.30
2022-12-13T10:00:09.237Z,28.40
2022-12-13T10:02:46.931Z,28.40
2022-12-13T10:05:22.961Z,28.60
2022-12-13T10:07:54.992Z,28.70
2022-12-13T10:10:24.315Z,28.70
2022-12-13T10:13:18.078Z,28.70
2022-12-13T10:15:53.864Z,28.80
2022-12-13T10:18:34.230Z,29.00
2022-12-13T10:21:32.068Z,29.10
2022-12-13T10:24:31.359Z,29.10
2022-12-13T10:27:16.855Z,29.00
2022-12-13T10:30:27.722Z,28.90
2022-12-13T10:33:01.725Z,28.80
2022-12-13T10:35:33.877Z,28.80
2022-12-13T10:38:23.773Z,28.80
2022-12-13T10:41:01.147Z,28.80
2022-12-13T10:43:29.985Z,28.90
2022-12-13T10:45:59.889Z,28.90
2022-12-13T10:48:42.938Z,28.90
2022-12-13T10:51:17.211Z,29.00
2022-12-13T10:53:50.340Z,29.00
2022-12-13T10:56:22.940Z,28.90
2022-12-13T10:59:25.448Z,28.80
2022-12-13T11:01:54.674Z,28.90
2022-12-13T11:04:28.270Z,28.90
2022-12-13T11:06:58.714Z,29.00
2022-12-13T11:09:38.332Z,29.10
2022-12-13T11:12:17.115Z,29.10
2022-12-13T11:15:03.461Z,29.30
2022-12-13T11:17:37.543Z,29.50
2022-12-13T11:20:15.763Z,29.60
2022-12-13T11:22:44.699Z,29.60
2022-12-13T11:25:26.612Z,29.70
2022-12-13T11:28:37.671Z,29.60
2022-12-13T11:31:01.353Z,29.40
2022-12-13T11:34:11.507Z,29.40
2022-12-13T11:37:05.565Z,29.30
2022-12-13T11:39:43.889Z,29.30
2022-12-13T11:42:21.077Z,29.30
2022-12-13T11:45:04.700Z,29.30
2022-12-13T11:47:58.593Z,29.50
2022-12-13T11:50:47.650Z,29.70
2022-12-13T11:53:22.514Z,29.80
2022-12-13T11:56:26.268Z,29.90
2022-12-13T11:59:22.416Z,30.10
2022-12-13T12:02:16.771Z,30.10
2022-12-13T12:04:59.682Z,30.00
2022-12-13T12:08:30.751Z,30.10
2022-12-13T12:10:50.279Z,29.90
2022-12-13T12:13:34.838Z,29.90
2022-12-13T12:16:38.623Z,29.90
2022-12-13T12:19:18.493Z,29.90
2022-12-13T12:22:13.581Z,29.80
2022-12-13T12:24:48.863Z,29.70
2022-12-13T12:27:22.359Z,29.80
2022-12-13T12:30:23.138Z,29.90
2022-12-13T12:32:58.725Z,30.20
2022-12-13T12:36:04.027Z,30.40
2022-12-13T12:39:06.083Z,30.40
2022-12-13T12:42:00.562Z,30.60
2022-12-13T12:44:31.930Z,30.60
2022-12-13T12:47:36.182Z,30.80
2022-12-13T12:50:17.493Z,30.90
2022-12-13T12:52:51.597Z,30.80
2022-12-13T12:55:42.315Z,30.80
2022-12-13T12:58:44.718Z,30.80
2022-12-13T13:01:15.455Z,30.90
2022-12-13T13:03:45.100Z,31.00
2022-12-13T13:06:19.740Z,31.00
2022-12-13T13:09:04.209Z,31.10
2022-12-13T13:14:01.405Z,30.90
2022-12-13T13:16:35.616Z,31.10
2022-12-13T13:19:13.066Z,31.00
2022-12-13T13:21:47.309Z,30.80
2022-12-13T13:24:19.104Z,30.70
2022-12-13T13:26:56.088Z,30.70
2022-12-13T13:29:27.494Z,30.60
2022-12-13T13:32:11.928Z,30.70
2022-12-13T13:34:52.308Z,30.90
2022-12-13T13:37:26.789Z,31.00
2022-12-13T13:39:56.442Z,31.00
2022-12-13T13:42:27.295Z,31.20
2022-12-13T13:45:02.057Z,31.20
2022-12-13T13:47:38.621Z,31.20
2022-12-13T13:50:10.030Z,31.00
2022-12-13T13:52:47.472Z,31.10
2022-12-13T13:55:34.402Z,31.10
2022-12-13T13:58:28.165Z,31.10
2022-12-13T14:01:33.114Z,31.10
2022-12-13T14:04:31.545Z,31.30
2022-12-13T14:07:26.799Z,31.30
2022-12-13T14:52:50.114Z,31.70
2022-12-13T14:55:33.746Z,31.80
2022-12-13T14:58:04.163Z,31.90
2022-12-13T15:00:40.294Z,31.80
2022-12-13T15:03:20.717Z,32.10
2022-12-13T15:05:52.429Z,32.30
2022-12-13T15:08:21.399Z,32.50
2022-12-13T15:10:58.277Z,32.50
2022-12-13T15:13:30.086Z,32.30
2022-12-13T15:16:22.199Z,32.00
2022-12-13T15:19:13.777Z,31.70
2022-12-13T15:22:05.302Z,31.40
2022-12-13T15:24:42.607Z,31.30
2022-12-13T15:27:18.970Z,31.20
2022-12-13T15:29:48.330Z,31.60
2022-12-13T15:32:18.676Z,31.80
2022-12-13T15:34:48.033Z,32.10
2022-12-13T15:37:29.708Z,32.30
2022-12-13T15:40:00.567Z,32.50
2022-12-13T15:42:36.911Z,32.70
2022-12-13T15:45:17.112Z,32.70
2022-12-13T15:47:47.186Z,32.90
2022-12-13T15:50:38.512Z,33.20
2022-12-13T15:53:23.080Z,33.10
2022-12-13T15:55:51.843Z,33.00
2022-12-13T15:58:27.643Z,32.90
2022-12-13T16:00:56.288Z,33.00
2022-12-13T16:03:27.662Z,33.10
2022-12-13T16:05:57.841Z,33.40
2022-12-13T16:08:36.080Z,33.40
2022-12-13T16:11:04.994Z,33.20
2022-12-13T16:13:38.779Z,33.10
2022-12-13T16:16:27.211Z,33.00
2022-12-13T16:19:00.369Z,33.00
2022-12-13T16:21:29.593Z,33.00
2022-12-13T16:23:57.789Z,33.00
2022-12-13T16:26:28.689Z,32.80
2022-12-13T16:28:57.412Z,32.70
2022-12-13T16:31:28.229Z,32.60
2022-12-13T16:33:56.493Z,32.30
2022-12-13T16:36:25.847Z,32.20
2022-12-13T16:38:54.314Z,32.20
2022-12-13T16:41:22.587Z,32.30
2022-12-13T16:43:56.375Z,32.50
2022-12-13T16:47:12.292Z,32.30
2022-12-13T16:49:26.459Z,32.20
2022-12-13T16:51:56.265Z,32.10
2022-12-13T16:54:26.730Z,32.20
2022-12-13T16:56:56.194Z,32.20
2022-12-13T16:59:26.908Z,32.10
2022-12-13T17:01:56.031Z,32.00
2022-12-13T17:04:27.310Z,31.60
2022-12-13T17:06:55.861Z,31.60
2022-12-13T17:09:24.882Z,31.40
2022-12-13T17:11:53.227Z,31.30
2022-12-13T17:14:21.540Z,31.40
2022-12-13T17:16:52.665Z,31.30
2022-12-13T17:19:21.020Z,31.10
2022-12-13T17:21:49.376Z,31.00
2022-12-13T17:24:17.576Z,31.00
2022-12-13T17:26:54.063Z,30.90
2022-12-13T17:29:26.612Z,30.60
2022-12-13T17:31:55.125Z,30.60
2022-12-13T17:34:23.329Z,30.40
2022-12-13T17:36:51.689Z,30.20
2022-12-13T17:39:21.109Z,30.20
2022-12-13T17:41:55.399Z,30.20
2022-12-13T17:44:25.896Z,30.20
2022-12-13T17:46:55.794Z,30.20
2022-12-13T17:49:25.144Z,30.10
2022-12-13T17:51:54.898Z,30.00
2022-12-13T17:54:25.084Z,29.90
2022-12-13T17:56:54.486Z,29.90
2022-12-13T17:59:23.669Z,29.80
2022-12-13T18:01:52.082Z,29.80
2022-12-13T18:09:41.281Z,29.50
2022-12-13T18:12:09.619Z,29.50
2022-12-13T18:14:37.702Z,29.40
2022-12-13T18:17:06.406Z,29.30
2022-12-13T18:19:34.940Z,29.30
2022-12-13T18:22:03.229Z,29.30
2022-12-13T18:24:31.335Z,29.30
2022-12-13T18:26:59.742Z,29.20
2022-12-13T18:29:28.000Z,29.20
2022-12-13T18:31:56.117Z,29.00
2022-12-13T18:34:24.475Z,29.00
2022-12-13T18:36:52.929Z,28.90
2022-12-13T18:39:21.350Z,28.90
2022-12-13T18:41:49.801Z,28.90
2022-12-13T18:44:19.971Z,28.90
2022-12-13T18:46:48.334Z,28.90
2022-12-13T18:49:16.667Z,28.90
2022-12-13T18:51:45.554Z,28.80
2022-12-13T18:54:14.150Z,28.80
2022-12-13T18:56:43.023Z,28.80
2022-12-13T18:59:11.961Z,28.90
2022-12-13T19:01:40.107Z,28.90
2022-12-13T19:04:08.499Z,28.90
2022-12-13T19:06:36.726Z,28.80
2022-12-13T19:09:05.326Z,28.70
2022-12-13T19:11:33.662Z,28.80
2022-12-13T19:14:01.883Z,28.80
2022-12-13T19:16:30.213Z,28.80
2022-12-13T19:18:58.873Z,28.80
2022-12-13T19:21:27.175Z,28.80
2022-12-13T19:23:57.693Z,28.80
2022-12-13T19:26:27.656Z,28.70
2022-12-13T19:28:57.881Z,28.70
2022-12-13T19:31:31.144Z,28.60
2022-12-13T19:34:02.231Z,28.60
2022-12-13T19:36:32.214Z,28.60
2022-12-13T19:39:00.853Z,28.60
2022-12-13T19:41:29.335Z,28.60
2022-12-13T19:43:57.707Z,28.60
2022-12-13T19:46:26.201Z,28.50
2022-12-13T19:48:54.674Z,28.50
2022-12-13T19:51:23.238Z,28.50
2022-12-13T19:53:52.076Z,28.50
2022-12-13T19:56:21.750Z,28.50
2022-12-13T19:58:50.846Z,28.40
2022-12-13T20:01:19.457Z,28.40
2022-12-13T20:03:48.498Z,28.40
2022-12-13T20:06:20.503Z,28.40
2022-12-13T20:08:48.700Z,28.40
2022-12-13T20:11:20.278Z,28.40
2022-12-13T20:13:50.099Z,28.40
2022-12-13T20:16:24.108Z,28.30
2022-12-13T20:18:57.726Z,28.30
2022-12-13T20:21:27.495Z,28.30
2022-12-13T20:23:56.204Z,28.40
2022-12-13T20:26:27.179Z,28.40
2022-12-13T20:28:56.256Z,28.30
2022-12-13T20:31:28.951Z,28.30
2022-12-13T20:34:03.140Z,28.20
2022-12-13T20:36:31.864Z,28.20
2022-12-13T20:39:02.447Z,28.20
2022-12-13T20:41:33.017Z,28.20
2022-12-13T20:44:04.198Z,28.20
2022-12-13T20:46:33.352Z,28.20
2022-12-13T20:49:04.916Z,28.20
2022-12-13T20:51:34.701Z,28.20
2022-12-13T20:54:03.369Z,28.20
2022-12-13T20:56:35.107Z,28.20
2022-12-13T20:59:06.555Z,28.20
2022-12-13T21:01:37.497Z,28.10
2022-12-13T21:04:07.463Z,28.20
2022-12-13T21:06:38.170Z,28.20
2022-12-13T21:09:07.569Z,28.20
2022-12-13T21:11:41.765Z,28.20
2022-12-13T21:14:23.013Z,28.10
2022-12-13T21:16:54.136Z,28.10
2022-12-13T21:19:24.816Z,28.10
2022-12-13T21:21:54.652Z,28.10
2022-12-13T21:24:25.149Z,28.00
2022-12-13T21:26:53.957Z,28.10
2022-12-13T21:29:22.210Z,28.10
2022-12-13T21:31:50.807Z,28.10
2022-12-13T21:34:19.942Z,28.10
2022-12-13T21:36:51.172Z,28.10
2022-12-13T21:39:22.799Z,28.00
2022-12-13T21:41:51.943Z,28.00
2022-12-13T21:44:20.348Z,28.00
2022-12-13T21:49:37.423Z,28.00
2022-12-13T21:52:06.231Z,28.00
2022-12-13T21:54:34.522Z,28.00
2022-12-13T21:57:02.830Z,28.10
2022-12-13T21:59:31.314Z,28.10
2022-12-13T22:02:15.244Z,28.10
2022-12-13T22:04:51.929Z,28.00
2022-12-13T22:07:31.793Z,28.00
2022-12-13T22:10:02.127Z,28.00
2022-12-13T22:12:35.227Z,28.00
2022-12-13T22:15:05.496Z,28.00
2022-12-13T22:17:36.115Z,28.00
2022-12-13T22:20:09.199Z,28.00
2022-12-13T22:22:39.611Z,28.00
2022-12-13T22:25:08.962Z,28.00
2022-12-13T22:27:37.225Z,28.00
2022-12-13T22:30:06.203Z,27.90
2022-12-13T22:32:34.625Z,27.90
2022-12-13T22:35:03.120Z,27.90
2022-12-13T22:37:31.484Z,27.90
2022-12-13T22:39:59.803Z,27.90
2022-12-13T22:42:28.108Z,27.90
2022-12-13T22:44:56.616Z,27.90
2022-12-13T22:47:24.820Z,27.80
2022-12-13T22:49:53.185Z,27.80
2022-12-13T22:52:21.519Z,27.80
2022-12-13T22:54:49.711Z,27.80
2022-12-13T22:57:18.079Z,27.80
2022-12-13T22:59:46.206Z,27.80
2022-12-13T23:02:14.730Z,27.80
2022-12-13T23:04:43.013Z,27.80
2022-12-13T23:07:11.361Z,27.70
2022-12-13T23:09:39.970Z,27.80
2022-12-13T23:12:08.561Z,27.80
2022-12-13T23:14:36.880Z,27.80
2022-12-13T23:17:05.384Z,27.80
2022-12-13T23:19:49.678Z,27.80
2022-12-13T23:22:24.292Z,27.80
2022-12-13T23:24:54.001Z,27.80
2022-12-13T23:27:25.393Z,27.80
2022-12-13T23:29:53.735Z,27.70
2022-12-13T23:32:22.130Z,27.70
2022-12-13T23:34:50.562Z,27.70
2022-12-13T23:37:18.944Z,27.70
2022-12-13T23:39:47.743Z,27.70
2022-12-13T23:42:15.998Z,27.60
2022-12-13T23:44:44.328Z,27.60
2022-12-13T23:47:12.707Z,27.60
2022-12-13T23:49:41.078Z,27.60
2022-12-13T23:52:09.500Z,27.60
2022-12-13T23:54:37.743Z,27.70
2022-12-13T23:57:06.026Z,27.70
2022-12-13T23:59:34.259Z,27.70
